Jones, Minnesota
Current Conditions -  °F | °C
As of 8:53 AM on Saturday 20 Dec 2014 (Local Time) from KBJI Reporting Station
Haze Haze  
Wind Chill: 23°   Ceiling: NA
Heat Index: 29°   Visibility: 2mi
Dew Point: 28°   Wind: 6mph
Humidity: 96%   Direction: 180°S
Pressure: 30.01"   Gusts: NA
Location:  47.5271°N, 94.7611°W
Report Text: KBJI 201453Z AUTO 18005KT 2SM BR M02/M02 A3001 RMK AO2 T10171023
Loading
Personal Weather Stations






























Interactive Weather Map New forecast layout! Learn more

10-Day Weather Forecast

Advertisements
Track Severe Weather on mobile